Time;durP1;ratioP1;P1;durP2;ratioP2;P2;SDS_P1;SDS_P2;PMS_P1;PMS_P2;Temp;Humidity;BMP_temperature;BMP_pressure;BME280_temperature;BME280_humidity;BME280_pressure;Samples;Min_cycle;Max_cycle;Signal;HPM_P1;HPM_P2
2022/11/06 00:00:05;;;;;;;15.80;7.13;;;;;;;;;;4986962;28;20078;-76
2022/11/06 00:02:31;;;;;;;14.68;6.80;;;;;;;;;;4987221;28;20037;-76
2022/11/06 00:06:46;;;;;;;18.10;7.38;;;;;;;;;;4969675;28;20034;-77
2022/11/06 00:07:45;;;;;;;20.80;6.97;;;;;;;;;;4987444;28;20035;-77
2022/11/06 00:10:12;;;;;;;16.90;7.45;;;;;;;;;;4991527;28;20025;-76
2022/11/06 00:12:38;;;;;;;25.08;8.32;;;;;;;;;;4985675;28;20466;-77
2022/11/06 00:15:04;;;;;;;17.30;6.82;;;;;;;;;;4971100;28;20035;-78
2022/11/06 00:17:30;;;;;;;16.27;7.00;;;;;;;;;;4995255;28;20077;-79
2022/11/06 00:19:56;;;;;;;18.05;6.93;;;;;;;;;;4992519;28;20046;-79
2022/11/06 00:22:22;;;;;;;15.95;6.50;;;;;;;;;;4991390;28;20368;-80
2022/11/06 00:24:48;;;;;;;19.50;7.80;;;;;;;;;;4980245;28;20053;-78
2022/11/06 00:27:14;;;;;;;18.73;7.43;;;;;;;;;;4988692;28;20035;-77
2022/11/06 00:29:40;;;;;;;17.27;7.22;;;;;;;;;;4980587;28;20048;-79
2022/11/06 00:32:07;;;;;;;19.48;8.00;;;;;;;;;;4990743;28;20034;-78
2022/11/06 00:34:33;;;;;;;18.80;6.93;;;;;;;;;;4988363;28;20026;-77
2022/11/06 00:37:00;;;;;;;16.73;6.85;;;;;;;;;;4970550;28;20069;-76
2022/11/06 00:39:26;;;;;;;14.40;7.28;;;;;;;;;;4992827;28;20038;-74
2022/11/06 00:41:52;;;;;;;21.13;6.72;;;;;;;;;;4987675;28;20049;-76
2022/11/06 00:44:18;;;;;;;16.38;7.22;;;;;;;;;;4975878;28;20030;-78
2022/11/06 00:46:44;;;;;;;17.00;7.03;;;;;;;;;;4991540;28;20042;-76
2022/11/06 00:49:10;;;;;;;26.42;8.02;;;;;;;;;;5001498;28;20023;-78
2022/11/06 00:51:39;;;;;;;16.40;7.90;;;;;;;;;;4979316;28;20141;-77
2022/11/06 00:54:07;;;;;;;16.15;6.57;;;;;;;;;;4997103;28;20065;-77
2022/11/06 00:56:33;;;;;;;20.48;7.50;;;;;;;;;;4990341;28;20122;-78
2022/11/06 00:59:00;;;;;;;21.63;7.72;;;;;;;;;;4995212;28;20482;-75
2022/11/06 01:01:28;;;;;;;21.75;7.53;;;;;;;;;;4991610;28;20448;-77
2022/11/06 01:03:55;;;;;;;15.63;7.97;;;;;;;;;;4989343;28;20030;-77
2022/11/06 01:06:23;;;;;;;15.30;7.80;;;;;;;;;;4975924;28;20061;-76
2022/11/06 01:08:49;;;;;;;19.02;7.93;;;;;;;;;;4993318;28;20022;-73
2022/11/06 01:11:17;;;;;;;15.32;7.45;;;;;;;;;;4989091;28;20038;-77
2022/11/06 01:13:43;;;;;;;19.25;7.03;;;;;;;;;;4985876;28;20031;-76
2022/11/06 01:16:10;;;;;;;17.15;7.70;;;;;;;;;;4974667;28;20093;-77
2022/11/06 01:18:37;;;;;;;21.90;8.45;;;;;;;;;;4987215;28;20050;-76
2022/11/06 01:21:04;;;;;;;17.02;7.40;;;;;;;;;;4988783;28;20510;-76
2022/11/06 01:23:31;;;;;;;20.55;7.60;;;;;;;;;;4984278;28;20104;-75
2022/11/06 01:25:58;;;;;;;17.55;7.70;;;;;;;;;;4987434;28;20049;-76
2022/11/06 01:28:24;;;;;;;17.08;8.35;;;;;;;;;;4989941;28;20397;-77
2022/11/06 01:30:50;;;;;;;24.15;7.57;;;;;;;;;;4967503;28;20038;-76
2022/11/06 01:33:16;;;;;;;22.20;8.20;;;;;;;;;;4987265;28;20034;-76
2022/11/06 01:35:46;;;;;;;21.98;6.97;;;;;;;;;;4984684;28;20034;-77
2022/11/06 01:38:11;;;;;;;21.38;8.27;;;;;;;;;;4983706;28;20461;-78
2022/11/06 01:40:44;;;;;;;18.80;7.53;;;;;;;;;;4988653;28;20117;-77
2022/11/06 01:43:16;;;;;;;21.73;8.38;;;;;;;;;;4984246;28;20235;-76
2022/11/06 01:45:43;;;;;;;14.00;6.68;;;;;;;;;;4986829;28;20030;-78
2022/11/06 01:48:10;;;;;;;15.60;7.78;;;;;;;;;;4981706;28;20026;-78
2022/11/06 01:50:36;;;;;;;18.52;7.30;;;;;;;;;;4987445;28;20034;-77
2022/11/06 01:53:02;;;;;;;14.25;6.82;;;;;;;;;;4995920;28;20552;-77
2022/11/06 01:55:30;;;;;;;19.95;7.25;;;;;;;;;;4985780;28;20137;-77
2022/11/06 01:58:00;;;;;;;14.75;7.72;;;;;;;;;;4980559;28;20042;-79
2022/11/06 02:00:26;;;;;;;15.63;6.45;;;;;;;;;;4979718;28;20042;-77
2022/11/06 02:02:52;;;;;;;18.23;7.15;;;;;;;;;;4986642;28;20061;-77
2022/11/06 02:05:18;;;;;;;14.85;6.53;;;;;;;;;;4968804;28;20505;-77
2022/11/06 02:07:44;;;;;;;17.98;7.25;;;;;;;;;;4981193;28;20038;-76
2022/11/06 02:10:10;;;;;;;17.15;6.78;;;;;;;;;;4980821;28;20049;-78
2022/11/06 02:12:55;;;;;;;15.73;7.30;;;;;;;;;;4982894;28;20033;-77
2022/11/06 02:15:30;;;;;;;19.58;6.70;;;;;;;;;;4982615;28;20026;-77
2022/11/06 02:18:14;;;;;;;14.13;7.00;;;;;;;;;;4979586;28;20057;-77
2022/11/06 02:21:04;;;;;;;16.80;6.90;;;;;;;;;;4980227;28;20130;-77
2022/11/06 02:24:09;;;;;;;14.52;6.63;;;;;;;;;;4979464;28;20049;-78
2022/11/06 02:26:53;;;;;;;20.50;6.03;;;;;;;;;;4936701;28;20043;-77
2022/11/06 02:29:20;;;;;;;12.80;6.20;;;;;;;;;;4945196;28;20038;-79
2022/11/06 02:31:48;;;;;;;13.38;6.80;;;;;;;;;;4959224;28;20066;-77
2022/11/06 02:34:15;;;;;;;16.20;6.57;;;;;;;;;;4986350;28;20030;-76
2022/11/06 02:36:46;;;;;;;16.60;6.45;;;;;;;;;;4985296;28;20493;-76
2022/11/06 02:39:15;;;;;;;14.68;6.50;;;;;;;;;;4980552;28;20031;-77
2022/11/06 02:41:43;;;;;;;19.30;6.55;;;;;;;;;;4982631;28;20057;-77
2022/11/06 02:44:11;;;;;;;16.27;6.10;;;;;;;;;;4979580;28;20041;-76
2022/11/06 02:46:39;;;;;;;16.60;6.15;;;;;;;;;;4967519;28;20513;-77
2022/11/06 02:49:10;;;;;;;22.08;8.88;;;;;;;;;;4984260;28;20042;-77
2022/11/06 02:51:39;;;;;;;13.65;6.45;;;;;;;;;;4980177;28;20091;-76
2022/11/06 02:54:06;;;;;;;17.10;7.00;;;;;;;;;;4984587;28;20033;-78
2022/11/06 02:56:39;;;;;;;16.15;6.85;;;;;;;;;;4981949;28;20046;-77
2022/11/06 02:59:17;;;;;;;19.63;6.57;;;;;;;;;;4986407;28;20034;-77
2022/11/06 03:01:45;;;;;;;18.83;6.93;;;;;;;;;;4981475;28;20082;-77
2022/11/06 03:04:15;;;;;;;20.00;6.43;;;;;;;;;;4973319;28;20034;-77
2022/11/06 03:06:45;;;;;;;17.40;6.38;;;;;;;;;;4972420;28;20037;-77
2022/11/06 03:09:14;;;;;;;19.58;6.57;;;;;;;;;;4990105;28;20641;-78
2022/11/06 03:11:40;;;;;;;17.45;6.55;;;;;;;;;;4987287;28;20029;-78
2022/11/06 03:14:06;;;;;;;14.02;5.47;;;;;;;;;;4968369;28;20159;-76
2022/11/06 03:16:51;;;;;;;17.77;5.95;;;;;;;;;;4989816;28;20030;-78
2022/11/06 03:19:35;;;;;;;20.63;5.95;;;;;;;;;;4995237;28;20041;-77
2022/11/06 03:22:04;;;;;;;21.45;7.28;;;;;;;;;;4987785;28;20058;-77
2022/11/06 03:24:34;;;;;;;17.13;5.38;;;;;;;;;;4998594;28;20046;-78
2022/11/06 03:27:03;;;;;;;16.00;6.38;;;;;;;;;;5007485;28;20038;-79
2022/11/06 03:29:38;;;;;;;17.50;6.00;;;;;;;;;;4992193;28;20034;-78
2022/11/06 03:32:08;;;;;;;19.80;5.95;;;;;;;;;;4994096;28;20057;-77
2022/11/06 03:34:41;;;;;;;13.20;6.15;;;;;;;;;;4989751;28;20026;-78
2022/11/06 03:37:11;;;;;;;22.95;6.90;;;;;;;;;;4978286;28;20054;-79
2022/11/06 03:39:39;;;;;;;19.27;6.57;;;;;;;;;;4996902;28;20031;-77
2022/11/06 03:42:07;;;;;;;16.50;6.05;;;;;;;;;;4990392;28;20029;-76
2022/11/06 03:44:38;;;;;;;14.50;5.88;;;;;;;;;;4992928;28;20030;-78
2022/11/06 03:47:12;;;;;;;24.35;6.93;;;;;;;;;;4990947;28;20061;-77
2022/11/06 03:49:45;;;;;;;15.48;6.47;;;;;;;;;;4995813;28;20031;-77
2022/11/06 03:52:14;;;;;;;15.95;6.43;;;;;;;;;;4998770;28;20007;-76
2022/11/06 03:54:43;;;;;;;12.70;6.43;;;;;;;;;;4995604;28;20045;-77
2022/11/06 03:57:12;;;;;;;17.05;6.97;;;;;;;;;;4990185;28;20042;-77
2022/11/06 03:59:43;;;;;;;16.85;6.38;;;;;;;;;;4994296;28;20136;-77
2022/11/06 04:02:09;;;;;;;;;;;;;;;;;;4991653;28;20467;-79
2022/11/06 04:04:43;;;;;;;19.23;7.20;;;;;;;;;;4976393;28;19983;-78
2022/11/06 04:07:11;;;;;;;16.15;6.30;;;;;;;;;;4990492;28;20125;-77
2022/11/06 04:15:16;;;;;;;26.27;7.03;;;;;;;;;;4988333;28;20052;-80
2022/11/06 04:17:42;;;;;;;14.85;5.95;;;;;;;;;;4990415;28;20047;-79
2022/11/06 04:21:20;;;;;;;14.95;6.13;;;;;;;;;;4987145;28;20062;-79
2022/11/06 04:23:00;;;;;;;13.40;6.70;;;;;;;;;;4988685;28;20034;-80
2022/11/06 04:28:39;;;;;;;19.38;6.05;;;;;;;;;;4990912;28;20052;-78
2022/11/06 04:31:16;;;;;;;13.82;6.22;;;;;;;;;;4986814;28;20181;-78
2022/11/06 04:33:54;;;;;;;16.15;6.90;;;;;;;;;;4993327;28;20022;-78
2022/11/06 04:36:39;;;;;;;17.38;6.80;;;;;;;;;;4973589;28;20492;-78
2022/11/06 04:39:18;;;;;;;16.30;6.82;;;;;;;;;;4987602;28;20054;-79
2022/11/06 04:41:53;;;;;;;18.88;6.30;;;;;;;;;;4985594;28;20035;-78
2022/11/06 04:44:34;;;;;;;15.85;7.00;;;;;;;;;;4990638;28;20026;-77
2022/11/06 04:47:00;;;;;;;;;;;;;;;;;;4992909;28;20117;-80
2022/11/06 04:49:29;;;;;;;21.10;5.60;;;;;;;;;;4999320;28;19925;-78
2022/11/06 04:51:56;;;;;;;18.67;7.55;;;;;;;;;;4997174;28;20061;-77
2022/11/06 04:54:23;;;;;;;15.02;5.53;;;;;;;;;;4969909;28;20240;-80
2022/11/06 04:56:49;;;;;;;17.63;5.90;;;;;;;;;;4987190;28;20030;-79
2022/11/06 04:59:16;;;;;;;15.40;5.72;;;;;;;;;;4986768;28;20105;-80
2022/11/06 05:01:43;;;;;;;26.80;6.05;;;;;;;;;;4988306;28;20390;-80
2022/11/06 05:04:11;;;;;;;20.27;5.57;;;;;;;;;;4991517;28;20500;-80
2022/11/06 05:06:37;;;;;;;16.77;5.78;;;;;;;;;;4985970;28;20078;-76
2022/11/06 05:09:03;;;;;;;15.25;5.75;;;;;;;;;;4989245;28;20046;-79
2022/11/06 05:11:29;;;;;;;13.52;5.00;;;;;;;;;;4984157;28;20490;-77
2022/11/06 05:13:55;;;;;;;20.38;5.57;;;;;;;;;;4986745;28;20026;-78
2022/11/06 05:16:21;;;;;;;17.42;5.88;;;;;;;;;;4984555;28;20034;-79
2022/11/06 05:18:47;;;;;;;17.73;5.65;;;;;;;;;;4984623;28;20451;-79
2022/11/06 05:23:59;;;;;;;19.58;5.18;;;;;;;;;;4983156;28;20073;-79
2022/11/06 05:26:25;;;;;;;13.77;4.63;;;;;;;;;;4987067;28;20493;-79
2022/11/06 05:28:51;;;;;;;19.05;5.13;;;;;;;;;;4990675;28;20018;-79
2022/11/06 05:31:17;;;;;;;23.13;5.13;;;;;;;;;;4996530;28;20021;-80
2022/11/06 05:33:43;;;;;;;14.20;5.05;;;;;;;;;;4974043;28;20113;-77
2022/11/06 05:36:09;;;;;;;12.55;4.80;;;;;;;;;;4970060;28;20034;-78
2022/11/06 05:38:36;;;;;;;13.20;4.40;;;;;;;;;;4991149;28;20034;-78
2022/11/06 05:41:02;;;;;;;13.10;4.03;;;;;;;;;;4991081;28;20010;-78
2022/11/06 05:43:28;;;;;;;17.45;4.85;;;;;;;;;;4976063;28;20038;-79
2022/11/06 05:45:54;;;;;;;16.02;4.20;;;;;;;;;;4989988;28;20031;-77
2022/11/06 05:48:20;;;;;;;12.82;4.63;;;;;;;;;;4995810;28;20022;-80
2022/11/06 05:50:46;;;;;;;17.15;4.38;;;;;;;;;;4995280;28;20161;-78
2022/11/06 05:53:12;;;;;;;16.00;5.35;;;;;;;;;;4974036;28;20034;-78
2022/11/06 05:55:38;;;;;;;8.50;3.80;;;;;;;;;;4991271;28;20477;-78
2022/11/06 05:58:04;;;;;;;15.85;5.15;;;;;;;;;;4995510;28;20172;-79
2022/11/06 06:00:30;;;;;;;16.75;4.75;;;;;;;;;;4992164;28;20099;-76
2022/11/06 06:02:56;;;;;;;14.75;4.85;;;;;;;;;;4995729;28;20034;-78
2022/11/06 06:05:22;;;;;;;14.95;5.40;;;;;;;;;;4985423;28;20035;-78
2022/11/06 06:07:48;;;;;;;11.98;4.68;;;;;;;;;;4996265;28;20098;-78
2022/11/06 06:10:14;;;;;;;19.50;5.32;;;;;;;;;;4993986;28;20066;-78
2022/11/06 06:12:40;;;;;;;13.82;5.45;;;;;;;;;;4998094;28;20031;-78
2022/11/06 06:15:06;;;;;;;23.65;6.32;;;;;;;;;;4995726;28;20038;-79
2022/11/06 06:17:33;;;;;;;19.10;6.00;;;;;;;;;;4997551;28;20051;-78
2022/11/06 06:19:59;;;;;;;16.00;4.65;;;;;;;;;;4980306;28;20038;-78
2022/11/06 06:22:25;;;;;;;18.15;4.70;;;;;;;;;;4994177;28;20082;-79
2022/11/06 06:24:51;;;;;;;22.50;5.65;;;;;;;;;;4991248;28;20030;-78
2022/11/06 06:27:17;;;;;;;13.07;5.43;;;;;;;;;;4991406;28;20062;-78
2022/11/06 06:29:43;;;;;;;14.45;4.93;;;;;;;;;;4991146;28;20081;-78
2022/11/06 06:32:09;;;;;;;14.10;5.20;;;;;;;;;;4996627;28;20034;-77
2022/11/06 06:34:35;;;;;;;18.45;4.45;;;;;;;;;;4973844;28;20118;-76
2022/11/06 06:37:01;;;;;;;16.35;5.22;;;;;;;;;;4978030;28;20129;-76
2022/11/06 06:39:27;;;;;;;21.40;4.82;;;;;;;;;;4988771;28;20501;-77
2022/11/06 06:41:53;;;;;;;12.63;4.60;;;;;;;;;;4992293;28;20030;-76
2022/11/06 06:44:19;;;;;;;19.10;5.97;;;;;;;;;;4986514;28;20053;-78
2022/11/06 06:46:45;;;;;;;15.38;5.72;;;;;;;;;;4988649;28;20030;-78
2022/11/06 06:49:11;;;;;;;13.27;4.95;;;;;;;;;;4975581;28;20045;-77
2022/11/06 06:51:37;;;;;;;13.07;4.95;;;;;;;;;;4971167;28;20034;-77
2022/11/06 06:54:03;;;;;;;13.07;4.05;;;;;;;;;;4988526;28;20405;-77
2022/11/06 06:56:29;;;;;;;14.50;4.90;;;;;;;;;;4987912;28;20041;-76
2022/11/06 06:58:55;;;;;;;13.57;4.55;;;;;;;;;;4989242;28;20034;-78
2022/11/06 07:01:23;;;;;;;18.13;5.03;;;;;;;;;;4987026;28;20034;-77
2022/11/06 07:03:49;;;;;;;16.55;5.00;;;;;;;;;;4986868;28;20035;-77
2022/11/06 07:06:18;;;;;;;11.60;4.32;;;;;;;;;;4995390;28;20034;-76
2022/11/06 07:08:44;;;;;;;18.42;4.97;;;;;;;;;;4996207;28;20273;-77
2022/11/06 07:11:10;;;;;;;15.85;5.68;;;;;;;;;;4957621;28;20405;-77
2022/11/06 07:13:36;;;;;;;13.82;4.70;;;;;;;;;;4988508;28;20049;-79
2022/11/06 07:16:06;;;;;;;15.73;4.78;;;;;;;;;;4988367;28;20043;-77
2022/11/06 07:18:33;;;;;;;16.00;4.75;;;;;;;;;;4969249;28;20047;-79
2022/11/06 07:20:59;;;;;;;11.50;4.72;;;;;;;;;;4987078;28;20137;-77
2022/11/06 07:23:25;;;;;;;14.50;4.20;;;;;;;;;;4989567;28;20569;-77
2022/11/06 07:25:52;;;;;;;16.02;4.65;;;;;;;;;;4989369;28;20037;-75
2022/11/06 07:28:18;;;;;;;14.95;4.30;;;;;;;;;;4972166;28;20088;-77
2022/11/06 07:30:44;;;;;;;15.32;4.70;;;;;;;;;;4955593;28;20034;-76
2022/11/06 07:33:10;;;;;;;12.95;4.10;;;;;;;;;;4967429;28;20049;-77
2022/11/06 07:35:36;;;;;;;17.55;4.63;;;;;;;;;;4968776;28;20157;-75
2022/11/06 07:38:05;;;;;;;22.60;4.78;;;;;;;;;;4982014;28;20133;-76
2022/11/06 07:40:35;;;;;;;12.68;4.25;;;;;;;;;;4980948;28;20035;-77
2022/11/06 07:43:08;;;;;;;18.20;5.40;;;;;;;;;;4991379;28;20067;-79
2022/11/06 07:45:53;;;;;;;11.27;5.05;;;;;;;;;;4986954;28;20039;-77
2022/11/06 07:48:19;;;;;;;11.73;4.10;;;;;;;;;;4989361;28;20026;-75
2022/11/06 07:50:45;;;;;;;8.02;4.25;;;;;;;;;;4985431;28;20474;-74
2022/11/06 07:53:11;;;;;;;12.88;4.47;;;;;;;;;;4986723;28;20023;-77
2022/11/06 07:55:37;;;;;;;11.80;4.38;;;;;;;;;;4986177;28;20509;-76
2022/11/06 07:58:03;;;;;;;11.27;4.80;;;;;;;;;;4985526;28;20046;-75
2022/11/06 08:00:29;;;;;;;16.13;4.05;;;;;;;;;;4967117;28;20366;-76
2022/11/06 08:02:55;;;;;;;15.88;5.75;;;;;;;;;;4967426;28;20141;-78
2022/11/06 08:05:21;;;;;;;12.55;4.35;;;;;;;;;;4966306;28;20059;-76
2022/11/06 08:07:47;;;;;;;15.60;4.05;;;;;;;;;;4987210;28;20049;-78
2022/11/06 08:10:13;;;;;;;14.75;3.55;;;;;;;;;;4988362;28;20081;-78
2022/11/06 08:12:39;;;;;;;11.68;3.60;;;;;;;;;;4995895;28;20046;-78
2022/11/06 08:15:05;;;;;;;14.50;3.40;;;;;;;;;;4983810;28;20066;-77
2022/11/06 08:17:31;;;;;;;10.88;3.33;;;;;;;;;;4966421;28;20129;-76
2022/11/06 08:19:57;;;;;;;17.00;3.33;;;;;;;;;;4968567;28;20087;-77
2022/11/06 08:22:23;;;;;;;12.20;4.75;;;;;;;;;;4965218;28;20035;-79
2022/11/06 08:24:49;;;;;;;12.77;3.40;;;;;;;;;;4946700;28;20038;-78
2022/11/06 08:27:15;;;;;;;7.78;3.20;;;;;;;;;;4948339;28;20115;-74
2022/11/06 08:29:41;;;;;;;12.77;3.72;;;;;;;;;;4966620;28;20062;-76
2022/11/06 08:32:07;;;;;;;11.25;4.18;;;;;;;;;;4966341;28;20038;-78
2022/11/06 08:34:34;;;;;;;12.07;3.63;;;;;;;;;;4966874;28;20027;-75
2022/11/06 08:37:00;;;;;;;8.20;3.15;;;;;;;;;;4964804;28;20513;-78
2022/11/06 08:39:26;;;;;;;12.63;3.47;;;;;;;;;;4948456;28;20150;-78
2022/11/06 08:41:52;;;;;;;23.63;3.30;;;;;;;;;;4968979;28;20991;-79
2022/11/06 08:44:18;;;;;;;11.38;3.72;;;;;;;;;;4964577;28;20031;-78
2022/11/06 08:46:44;;;;;;;8.52;3.13;;;;;;;;;;4969535;28;20045;-78
2022/11/06 08:49:10;;;;;;;11.35;3.33;;;;;;;;;;4966052;28;20035;-79
2022/11/06 08:51:36;;;;;;;11.25;3.53;;;;;;;;;;4947780;28;20038;-77
2022/11/06 08:54:03;;;;;;;7.82;3.25;;;;;;;;;;4966655;28;20490;-76
2022/11/06 08:56:29;;;;;;;12.25;3.22;;;;;;;;;;4933513;28;20451;-77
2022/11/06 08:58:55;;;;;;;11.65;2.97;;;;;;;;;;4946412;28;20046;-77
2022/11/06 09:01:22;;;;;;;10.48;3.47;;;;;;;;;;4965527;28;20047;-78
2022/11/06 09:03:48;;;;;;;12.65;3.05;;;;;;;;;;4956893;28;20037;-79
2022/11/06 09:06:14;;;;;;;8.95;2.80;;;;;;;;;;4945961;28;20035;-79
2022/11/06 09:08:40;;;;;;;8.00;2.90;;;;;;;;;;4966506;28;20062;-76
2022/11/06 09:11:06;;;;;;;10.70;2.50;;;;;;;;;;4963605;28;20033;-77
2022/11/06 09:13:33;;;;;;;9.18;2.45;;;;;;;;;;4950238;28;20034;-78
2022/11/06 09:15:59;;;;;;;10.32;2.90;;;;;;;;;;4976178;28;20018;-80
2022/11/06 09:18:25;;;;;;;12.70;3.25;;;;;;;;;;4981145;28;20247;-78
2022/11/06 09:20:57;;;;;;;10.55;3.13;;;;;;;;;;4985606;28;20541;-76
2022/11/06 09:23:24;;;;;;;10.00;2.67;;;;;;;;;;4987572;28;20027;-80
2022/11/06 09:25:50;;;;;;;6.43;2.88;;;;;;;;;;4984374;28;20050;-78
2022/11/06 09:28:16;;;;;;;8.63;2.60;;;;;;;;;;4982132;28;20046;-77
2022/11/06 09:30:42;;;;;;;8.70;2.38;;;;;;;;;;4983819;28;20113;-76
2022/11/06 09:33:08;;;;;;;9.32;2.70;;;;;;;;;;4968502;28;20034;-79
2022/11/06 09:35:35;;;;;;;13.45;2.90;;;;;;;;;;4982962;28;20105;-79
2022/11/06 09:38:02;;;;;;;9.43;2.88;;;;;;;;;;4979466;28;20579;-77
2022/11/06 09:40:40;;;;;;;7.65;2.75;;;;;;;;;;4966743;28;20438;-79
2022/11/06 09:43:25;;;;;;;9.55;2.85;;;;;;;;;;4984520;28;20045;-80
2022/11/06 09:45:52;;;;;;;9.98;2.83;;;;;;;;;;4982225;28;20061;-79
2022/11/06 09:48:27;;;;;;;7.38;2.28;;;;;;;;;;4983969;28;20046;-77
2022/11/06 09:51:01;;;;;;;10.90;2.28;;;;;;;;;;4984631;28;20485;-78
2022/11/06 09:53:33;;;;;;;9.02;2.22;;;;;;;;;;4984321;28;20026;-79
2022/11/06 09:56:01;;;;;;;10.07;2.38;;;;;;;;;;4982589;28;20561;-79
2022/11/06 09:58:31;;;;;;;9.95;2.80;;;;;;;;;;4984866;28;20081;-81
2022/11/06 10:00:58;;;;;;;8.48;2.60;;;;;;;;;;4983538;28;20038;-80
2022/11/06 10:03:54;;;;;;;12.68;2.65;;;;;;;;;;4985060;28;20044;-78
2022/11/06 10:06:21;;;;;;;7.80;2.60;;;;;;;;;;4968770;28;20058;-80
2022/11/06 10:08:48;;;;;;;8.60;2.50;;;;;;;;;;4987440;28;20038;-78
2022/11/06 10:11:14;;;;;;;9.63;2.20;;;;;;;;;;4972344;28;20019;-79
2022/11/06 10:13:49;;;;;;;9.25;2.28;;;;;;;;;;4987971;28;20025;-77
2022/11/06 10:16:37;;;;;;;8.07;2.50;;;;;;;;;;4988259;28;21624;-80
2022/11/06 10:19:06;;;;;;;11.88;2.72;;;;;;;;;;4990094;28;20088;-78
2022/11/06 10:21:32;;;;;;;10.93;2.58;;;;;;;;;;4998165;28;20165;-78
2022/11/06 10:24:00;;;;;;;5.07;2.05;;;;;;;;;;4971771;28;20482;-76
2022/11/06 10:26:26;;;;;;;10.27;2.72;;;;;;;;;;4970674;28;20031;-79
2022/11/06 10:29:04;;;;;;;9.43;2.30;;;;;;;;;;4987508;28;20033;-77
2022/11/06 10:31:46;;;;;;;11.07;2.50;;;;;;;;;;4986447;28;20493;-78
2022/11/06 10:34:20;;;;;;;8.32;2.28;;;;;;;;;;4987573;28;20037;-78
2022/11/06 10:36:51;;;;;;;10.10;2.58;;;;;;;;;;4986079;28;20118;-77
2022/11/06 10:39:36;;;;;;;13.35;2.70;;;;;;;;;;4986255;28;20576;-77
2022/11/06 10:42:06;;;;;;;10.85;3.17;;;;;;;;;;4988016;28;20045;-76
2022/11/06 10:44:32;;;;;;;9.40;2.65;;;;;;;;;;4970929;28;20034;-77
2022/11/06 10:47:01;;;;;;;7.32;2.85;;;;;;;;;;4990128;28;20432;-77
2022/11/06 10:49:36;;;;;;;11.93;2.50;;;;;;;;;;4988970;28;20030;-76
2022/11/06 10:52:19;;;;;;;7.68;2.38;;;;;;;;;;4994500;28;20018;-77
2022/11/06 10:54:51;;;;;;;8.32;2.35;;;;;;;;;;4993519;28;20398;-77
2022/11/06 10:57:27;;;;;;;11.65;2.60;;;;;;;;;;4986597;28;20030;-79
2022/11/06 10:59:53;;;;;;;8.80;2.38;;;;;;;;;;4983638;28;20031;-75
2022/11/06 11:02:19;;;;;;;7.55;2.53;;;;;;;;;;4972182;28;20144;-77
2022/11/06 11:04:45;;;;;;;11.75;3.33;;;;;;;;;;4965874;28;20027;-76
2022/11/06 11:07:15;;;;;;;10.15;2.70;;;;;;;;;;4966759;28;20041;-74
2022/11/06 11:09:41;;;;;;;9.13;2.65;;;;;;;;;;4970563;28;20397;-75
2022/11/06 11:12:21;;;;;;;8.77;2.67;;;;;;;;;;4974236;28;20031;-77
2022/11/06 11:15:04;;;;;;;9.02;2.58;;;;;;;;;;4991553;28;20018;-77
2022/11/06 11:17:30;;;;;;;9.50;2.95;;;;;;;;;;4997113;28;20046;-76
2022/11/06 11:19:56;;;;;;;13.10;3.67;;;;;;;;;;4996268;28;20124;-79
2022/11/06 11:22:23;;;;;;;12.63;2.78;;;;;;;;;;4996188;28;20034;-74
2022/11/06 11:25:08;;;;;;;8.43;2.38;;;;;;;;;;4996329;28;20084;-76
2022/11/06 11:27:36;;;;;;;14.60;2.90;;;;;;;;;;4995153;28;20026;-77
2022/11/06 11:30:03;;;;;;;7.22;2.58;;;;;;;;;;4997322;28;20026;-76
2022/11/06 11:32:30;;;;;;;8.05;2.58;;;;;;;;;;4997998;28;20061;-79
2022/11/06 11:34:56;;;;;;;11.15;2.50;;;;;;;;;;4997962;28;20018;-75
2022/11/06 11:37:34;;;;;;;8.32;2.40;;;;;;;;;;4979836;28;20038;-76
2022/11/06 11:40:23;;;;;;;8.98;2.63;;;;;;;;;;4992307;28;20054;-77
2022/11/06 11:42:50;;;;;;;8.07;2.42;;;;;;;;;;4992278;28;20038;-78
2022/11/06 11:45:17;;;;;;;9.05;3.08;;;;;;;;;;4999241;28;20758;-76
2022/11/06 11:47:45;;;;;;;15.05;3.08;;;;;;;;;;4995821;28;20027;-75
2022/11/06 11:50:24;;;;;;;10.45;2.60;;;;;;;;;;4993229;28;20109;-79
2022/11/06 11:52:52;;;;;;;12.05;2.88;;;;;;;;;;4991906;28;20496;-79
2022/11/06 11:55:24;;;;;;;8.27;2.47;;;;;;;;;;4996324;28;20078;-77
2022/11/06 11:57:52;;;;;;;14.50;3.28;;;;;;;;;;5003251;28;20073;-77
2022/11/06 12:00:19;;;;;;;10.63;2.72;;;;;;;;;;4980972;28;20069;-76
2022/11/06 12:02:47;;;;;;;11.02;2.42;;;;;;;;;;4997635;28;20026;-77
2022/11/06 12:05:23;;;;;;;9.60;2.70;;;;;;;;;;4991047;28;20486;-76
2022/11/06 12:07:53;;;;;;;10.88;2.97;;;;;;;;;;4996257;28;20497;-78
2022/11/06 12:10:22;;;;;;;8.07;2.90;;;;;;;;;;4996907;28;20037;-78
2022/11/06 12:12:49;;;;;;;9.57;2.80;;;;;;;;;;4997459;28;20053;-75
2022/11/06 12:15:18;;;;;;;14.90;3.42;;;;;;;;;;4997814;28;20033;-78
2022/11/06 12:17:46;;;;;;;7.50;2.80;;;;;;;;;;4996978;28;20088;-77
2022/11/06 12:20:15;;;;;;;5.60;2.20;;;;;;;;;;4997113;28;20125;-77
2022/11/06 12:22:43;;;;;;;27.88;3.35;;;;;;;;;;4996163;28;20082;-75
2022/11/06 12:25:15;;;;;;;11.00;2.70;;;;;;;;;;4995462;28;20493;-76
2022/11/06 12:27:47;;;;;;;8.73;2.42;;;;;;;;;;4994965;28;20030;-76
2022/11/06 12:30:17;;;;;;;8.75;3.22;;;;;;;;;;4998800;28;20057;-77
2022/11/06 12:33:03;;;;;;;11.95;2.92;;;;;;;;;;4994779;28;20030;-76
2022/11/06 12:35:46;;;;;;;9.70;3.45;;;;;;;;;;4982584;28;20082;-77
2022/11/06 12:38:18;;;;;;;10.48;2.63;;;;;;;;;;4986828;28;20027;-78
2022/11/06 12:40:50;;;;;;;9.27;2.70;;;;;;;;;;4994164;28;20026;-77
2022/11/06 12:43:22;;;;;;;12.18;3.22;;;;;;;;;;4987679;28;20379;-77
2022/11/06 12:46:06;;;;;;;9.50;2.97;;;;;;;;;;4986783;28;20023;-79
2022/11/06 12:48:51;;;;;;;11.13;2.60;;;;;;;;;;4988536;28;20486;-82
2022/11/06 12:51:23;;;;;;;9.13;2.58;;;;;;;;;;4984331;28;20022;-79
2022/11/06 12:53:49;;;;;;;7.28;2.28;;;;;;;;;;4992451;28;20405;-79
2022/11/06 12:56:32;;;;;;;8.82;2.97;;;;;;;;;;4991880;28;20575;-78
2022/11/06 12:59:02;;;;;;;11.05;2.83;;;;;;;;;;4992751;28;20038;-77
2022/11/06 13:01:47;;;;;;;7.28;2.35;;;;;;;;;;4982023;28;20022;-78
2022/11/06 13:04:21;;;;;;;8.20;3.10;;;;;;;;;;4991865;28;20030;-78
2022/11/06 13:07:02;;;;;;;8.10;2.00;;;;;;;;;;4992022;28;20034;-78
2022/11/06 13:09:32;;;;;;;6.53;2.38;;;;;;;;;;4992075;28;20034;-78
2022/11/06 13:12:18;;;;;;;9.13;2.53;;;;;;;;;;4971617;28;20051;-78
2022/11/06 13:15:00;;;;;;;10.07;2.20;;;;;;;;;;4973980;28;20077;-78
2022/11/06 13:17:31;;;;;;;7.63;2.60;;;;;;;;;;4991462;28;20045;-80
2022/11/06 13:20:18;;;;;;;10.48;2.75;;;;;;;;;;4991984;28;20054;-80
2022/11/06 13:23:02;;;;;;;11.70;2.60;;;;;;;;;;4986811;28;20026;-81
2022/11/06 13:25:31;;;;;;;10.65;2.70;;;;;;;;;;4974287;28;20042;-78
2022/11/06 13:28:01;;;;;;;12.85;2.83;;;;;;;;;;4974026;28;20493;-80
2022/11/06 13:30:29;;;;;;;10.85;3.03;;;;;;;;;;4991872;28;20022;-78
2022/11/06 13:33:13;;;;;;;10.10;3.33;;;;;;;;;;4991046;28;20102;-76
2022/11/06 13:35:41;;;;;;;8.52;3.58;;;;;;;;;;4990220;28;20029;-75
2022/11/06 13:38:08;;;;;;;6.18;2.35;;;;;;;;;;4972542;28;20073;-77
2022/11/06 13:40:41;;;;;;;10.63;3.08;;;;;;;;;;4990474;28;20026;-76
2022/11/06 13:43:29;;;;;;;11.63;2.92;;;;;;;;;;4990854;28;20134;-77
2022/11/06 13:46:05;;;;;;;10.55;2.88;;;;;;;;;;4984890;28;20059;-76
2022/11/06 13:48:36;;;;;;;15.43;3.60;;;;;;;;;;4973224;28;20041;-77
2022/11/06 13:51:13;;;;;;;12.88;3.33;;;;;;;;;;4989131;28;20022;-77
2022/11/06 13:53:44;;;;;;;16.45;3.67;;;;;;;;;;4990540;28;20490;-79
2022/11/06 13:56:22;;;;;;;16.42;4.07;;;;;;;;;;4991635;28;20037;-77
2022/11/06 13:59:12;;;;;;;23.00;3.95;;;;;;;;;;4991296;28;20027;-77
2022/11/06 14:01:57;;;;;;;13.15;3.38;;;;;;;;;;4980315;28;20038;-77
2022/11/06 14:04:23;;;;;;;15.45;3.40;;;;;;;;;;4995910;28;20031;-75
2022/11/06 14:06:53;;;;;;;14.75;3.58;;;;;;;;;;4997612;28;20357;-76
2022/11/06 14:09:20;;;;;;;14.13;3.88;;;;;;;;;;4990816;28;20092;-78
2022/11/06 14:11:52;;;;;;;16.35;3.45;;;;;;;;;;4990542;28;20022;-77
2022/11/06 14:14:20;;;;;;;14.52;3.28;;;;;;;;;;4991083;28;20027;-78
2022/11/06 14:17:06;;;;;;;13.77;3.60;;;;;;;;;;4990322;28;20030;-77
2022/11/06 14:19:52;;;;;;;16.48;3.65;;;;;;;;;;4990794;28;20065;-80
2022/11/06 14:22:26;;;;;;;14.05;4.28;;;;;;;;;;4985237;28;20113;-80
2022/11/06 14:24:52;;;;;;;17.63;4.43;;;;;;;;;;4990593;28;20113;-78
2022/11/06 14:27:18;;;;;;;17.55;3.88;;;;;;;;;;4990510;28;20454;-79
2022/11/06 14:29:55;;;;;;;11.68;3.83;;;;;;;;;;4971236;28;20034;-79
2022/11/06 14:32:20;;;;;;;18.20;4.13;;;;;;;;;;4970331;28;20034;-80
2022/11/06 14:34:47;;;;;;;12.40;3.50;;;;;;;;;;4989656;28;20031;-79
2022/11/06 14:37:16;;;;;;;14.32;4.68;;;;;;;;;;4989766;28;20034;-77
2022/11/06 14:39:49;;;;;;;12.60;3.47;;;;;;;;;;4989984;28;20481;-78
2022/11/06 14:42:15;;;;;;;12.75;4.07;;;;;;;;;;4982019;28;20037;-78
2022/11/06 14:44:43;;;;;;;12.68;3.80;;;;;;;;;;4990167;28;20537;-77
2022/11/06 14:47:21;;;;;;;14.65;4.13;;;;;;;;;;4990258;28;20513;-78
2022/11/06 14:49:49;;;;;;;21.98;4.82;;;;;;;;;;4991008;28;20041;-80
2022/11/06 14:52:15;;;;;;;15.02;4.35;;;;;;;;;;4991852;28;20034;-81
2022/11/06 14:54:57;;;;;;;18.95;4.35;;;;;;;;;;4976280;28;20041;-78
2022/11/06 14:57:52;;;;;;;16.83;4.30;;;;;;;;;;4987307;28;20027;-79
2022/11/06 15:00:30;;;;;;;13.00;4.13;;;;;;;;;;4981382;28;20047;-78